createdAt,value
2018-10-02T00:02:13.421Z,17.92
2018-10-02T00:04:40.932Z,18.70
2018-10-02T00:07:08.471Z,17.62
2018-10-02T00:09:36.006Z,18.70
2018-10-02T00:12:09.080Z,16.42
2018-10-02T00:14:36.618Z,18.67
2018-10-02T00:17:04.158Z,18.40
2018-10-02T00:19:31.714Z,17.60
2018-10-02T00:21:59.221Z,17.00
2018-10-02T00:24:26.757Z,17.32
2018-10-02T00:26:54.328Z,17.05
2018-10-02T00:29:21.844Z,17.05
2018-10-02T00:31:49.420Z,16.27
2018-10-02T00:34:17.002Z,16.17
2018-10-02T00:36:44.586Z,15.63
2018-10-02T00:39:12.118Z,16.60
2018-10-02T00:41:39.672Z,15.00
2018-10-02T00:44:07.227Z,16.27
2018-10-02T00:46:34.786Z,16.60
2018-10-02T00:49:02.340Z,15.20
2018-10-02T00:51:29.867Z,15.23
2018-10-02T00:53:57.390Z,16.07
2018-10-02T00:56:24.933Z,15.65
2018-10-02T00:58:52.468Z,13.90
2018-10-02T01:01:20.033Z,14.13
2018-10-02T01:03:47.541Z,13.00
2018-10-02T01:06:15.055Z,13.03
2018-10-02T01:08:42.619Z,14.20
2018-10-02T01:11:10.181Z,13.68
2018-10-02T01:13:37.683Z,13.65
2018-10-02T01:16:05.318Z,13.38
2018-10-02T01:18:32.897Z,12.43
2018-10-02T01:21:00.427Z,11.68
2018-10-02T01:23:28.037Z,9.68
2018-10-02T01:25:55.574Z,7.78
2018-10-02T01:28:23.173Z,4.60
2018-10-02T01:30:50.724Z,4.12
2018-10-02T01:33:18.244Z,4.45
2018-10-02T01:35:45.778Z,3.10
2018-10-02T01:38:13.307Z,3.50
2018-10-02T01:40:40.845Z,3.12
2018-10-02T01:43:08.391Z,3.10
2018-10-02T01:45:35.889Z,2.92
2018-10-02T01:48:03.401Z,2.65
2018-10-02T01:50:30.908Z,1.92
2018-10-02T01:52:58.448Z,3.40
2018-10-02T01:55:25.965Z,3.37
2018-10-02T01:57:53.462Z,2.85
2018-10-02T02:00:21.036Z,3.20
2018-10-02T02:02:48.592Z,4.08
2018-10-02T02:05:16.149Z,3.55
2018-10-02T02:07:43.682Z,3.75
2018-10-02T02:10:11.174Z,3.83
2018-10-02T02:12:38.756Z,4.20
2018-10-02T02:15:06.324Z,4.22
2018-10-02T02:17:33.889Z,4.50
2018-10-02T02:20:01.473Z,4.37
2018-10-02T02:22:29.009Z,5.60
2018-10-02T02:24:56.546Z,5.33
2018-10-02T02:27:24.236Z,6.15
2018-10-02T02:29:51.747Z,6.30
2018-10-02T02:32:19.290Z,6.75
2018-10-02T02:34:46.854Z,7.80
2018-10-02T02:37:14.352Z,7.45
2018-10-02T02:39:41.884Z,7.47
2018-10-02T02:42:09.390Z,7.40
2018-10-02T02:44:36.929Z,7.72
2018-10-02T02:47:10.172Z,7.70
2018-10-02T02:49:43.363Z,8.38
2018-10-02T02:52:11.710Z,6.80
2018-10-02T02:54:39.226Z,7.25
2018-10-02T02:57:06.788Z,7.72
2018-10-02T02:59:34.320Z,8.50
2018-10-02T03:02:01.880Z,7.12
2018-10-02T03:04:29.429Z,6.95
2018-10-02T03:06:57.018Z,8.30
2018-10-02T03:09:24.566Z,8.28
2018-10-02T03:11:52.101Z,6.83
2018-10-02T03:14:19.604Z,6.72
2018-10-02T03:16:47.137Z,7.00
2018-10-02T03:19:14.706Z,6.05
2018-10-02T03:21:42.285Z,6.22
2018-10-02T03:24:09.761Z,6.70
2018-10-02T03:26:37.327Z,5.95
2018-10-02T03:29:04.833Z,5.70
2018-10-02T03:31:32.543Z,6.28
2018-10-02T03:34:00.070Z,5.83
2018-10-02T03:36:27.643Z,6.58
2018-10-02T03:38:55.147Z,5.90
2018-10-02T03:41:22.689Z,5.95
2018-10-02T03:43:50.221Z,4.60
2018-10-02T03:46:17.921Z,5.55
2018-10-02T03:48:45.468Z,4.78
2018-10-02T03:51:12.969Z,4.53
2018-10-02T03:53:40.465Z,4.95
2018-10-02T03:56:08.049Z,4.53
2018-10-02T03:58:35.577Z,4.87
2018-10-02T04:01:03.214Z,5.10
2018-10-02T04:03:30.831Z,5.03
2018-10-02T04:05:58.329Z,5.45
2018-10-02T04:08:25.880Z,5.40
2018-10-02T04:10:53.399Z,4.65
2018-10-02T04:13:20.999Z,4.97
2018-10-02T04:15:48.455Z,5.37
2018-10-02T04:18:15.982Z,5.50
2018-10-02T04:20:43.530Z,5.75
2018-10-02T04:23:11.061Z,5.70
2018-10-02T04:25:38.577Z,5.45
2018-10-02T04:28:06.253Z,5.30
2018-10-02T04:30:33.714Z,7.65
2018-10-02T04:33:01.269Z,7.22
2018-10-02T04:35:28.777Z,7.25
2018-10-02T04:37:56.293Z,7.17
2018-10-02T04:40:23.803Z,8.40
2018-10-02T04:42:51.342Z,7.67
2018-10-02T04:45:18.891Z,8.48
2018-10-02T04:47:46.428Z,8.63
2018-10-02T04:50:13.986Z,9.10
2018-10-02T04:52:41.542Z,9.10
2018-10-02T04:55:09.157Z,8.55
2018-10-02T04:57:36.660Z,9.03
2018-10-02T05:00:04.406Z,9.98
2018-10-02T05:02:31.897Z,9.28
2018-10-02T05:04:59.475Z,9.03
2018-10-02T05:07:27.229Z,8.65
2018-10-02T05:09:54.842Z,10.20
2018-10-02T05:12:22.363Z,9.03
2018-10-02T05:14:49.890Z,10.15
2018-10-02T05:17:17.557Z,9.05
2018-10-02T05:19:45.065Z,9.48
2018-10-02T05:22:12.578Z,8.65
2018-10-02T05:24:40.123Z,8.95
2018-10-02T05:27:07.748Z,8.63
2018-10-02T05:29:35.266Z,8.90
2018-10-02T05:32:02.798Z,7.70
2018-10-02T05:34:30.375Z,9.60
2018-10-02T05:36:57.894Z,9.30
2018-10-02T05:39:25.460Z,8.05
2018-10-02T05:41:52.988Z,7.47
2018-10-02T05:44:20.498Z,7.42
2018-10-02T05:46:48.025Z,7.87
2018-10-02T05:49:15.602Z,8.28
2018-10-02T05:51:43.125Z,7.08
2018-10-02T05:54:10.688Z,6.72
2018-10-02T05:56:38.204Z,7.37
2018-10-02T05:59:05.778Z,7.70
2018-10-02T06:01:33.391Z,7.25
2018-10-02T06:04:00.911Z,7.58
2018-10-02T06:06:28.424Z,6.15
2018-10-02T06:08:55.914Z,7.50
2018-10-02T06:11:23.420Z,7.65
2018-10-02T06:13:50.922Z,6.95
2018-10-02T06:16:18.688Z,6.72
2018-10-02T06:18:46.268Z,7.00
2018-10-02T06:21:13.933Z,7.78
2018-10-02T06:23:41.472Z,6.97
2018-10-02T06:26:08.985Z,7.87
2018-10-02T06:28:36.525Z,7.90
2018-10-02T06:31:04.067Z,8.23
2018-10-02T06:33:31.577Z,7.70
2018-10-02T06:35:59.107Z,7.47
2018-10-02T06:38:26.777Z,7.80
2018-10-02T06:40:54.189Z,7.28
2018-10-02T06:43:21.770Z,8.00
2018-10-02T06:45:49.286Z,8.70
2018-10-02T06:48:16.853Z,7.97
2018-10-02T06:50:44.473Z,8.30
2018-10-02T06:53:11.943Z,9.25
2018-10-02T06:55:39.469Z,9.70
2018-10-02T06:58:06.983Z,9.43
2018-10-02T07:00:34.866Z,9.15
2018-10-02T07:03:02.537Z,8.93
2018-10-02T07:05:29.979Z,10.63
2018-10-02T07:07:57.503Z,9.68
2018-10-02T07:10:25.055Z,8.88
2018-10-02T07:12:52.613Z,8.58
2018-10-02T07:15:20.141Z,8.80
2018-10-02T07:17:47.687Z,8.23
2018-10-02T07:20:15.195Z,9.88
2018-10-02T07:22:42.710Z,8.48
2018-10-02T07:25:10.247Z,8.95
2018-10-02T07:27:37.888Z,8.10
2018-10-02T07:30:05.449Z,8.85
2018-10-02T07:32:33.020Z,9.75
2018-10-02T07:35:00.565Z,9.48
2018-10-02T07:37:28.084Z,10.50
2018-10-02T07:39:55.656Z,8.38
2018-10-02T07:42:23.211Z,8.53
2018-10-02T07:44:50.747Z,9.05
2018-10-02T07:47:18.278Z,8.85
2018-10-02T07:49:45.887Z,8.95
2018-10-02T07:52:13.450Z,9.40
2018-10-02T07:54:41.041Z,9.60
2018-10-02T07:57:08.794Z,8.48
2018-10-02T07:59:36.361Z,10.65
2018-10-02T08:02:03.904Z,29.35
2018-10-02T08:04:31.462Z,8.48
2018-10-02T08:06:59.055Z,8.98
2018-10-02T08:09:26.601Z,15.10
2018-10-02T08:11:54.153Z,10.50
2018-10-02T08:14:21.780Z,8.15
2018-10-02T08:16:49.265Z,9.18
2018-10-02T08:19:16.824Z,7.58
2018-10-02T08:21:44.367Z,8.15
2018-10-02T08:24:11.907Z,8.53
2018-10-02T08:26:39.556Z,7.37
2018-10-02T08:29:06.997Z,8.85
2018-10-02T08:31:34.576Z,9.28
2018-10-02T08:34:02.123Z,8.98
2018-10-02T08:36:29.682Z,8.78
2018-10-02T08:38:57.310Z,8.93
2018-10-02T08:41:24.852Z,8.98
2018-10-02T08:43:52.458Z,8.05
2018-10-02T08:46:19.956Z,7.17
2018-10-02T08:48:47.573Z,7.95
2018-10-02T08:51:15.106Z,8.18
2018-10-02T08:53:42.705Z,8.13
2018-10-02T08:56:10.247Z,8.13
2018-10-02T08:58:37.846Z,7.60
2018-10-02T09:01:05.852Z,8.03
2018-10-02T09:03:33.437Z,8.00
2018-10-02T09:06:01.000Z,7.33
2018-10-02T09:08:28.553Z,7.95
2018-10-02T09:10:56.120Z,8.15
2018-10-02T09:13:23.669Z,7.90
2018-10-02T09:15:51.294Z,6.70
2018-10-02T09:18:18.812Z,7.25
2018-10-02T09:20:46.375Z,7.20
2018-10-02T09:23:13.971Z,6.35
2018-10-02T09:25:41.531Z,7.95
2018-10-02T09:28:09.146Z,7.90
2018-10-02T09:30:42.214Z,7.63
2018-10-02T09:33:15.475Z,8.37
2018-10-02T09:35:48.674Z,7.33
2018-10-02T09:38:21.830Z,6.90
2018-10-02T09:40:55.006Z,7.30
2018-10-02T09:43:28.271Z,7.37
2018-10-02T09:45:57.002Z,6.80
2018-10-02T09:48:24.560Z,6.47
2018-10-02T09:50:52.151Z,7.17
2018-10-02T09:53:19.719Z,6.70
2018-10-02T09:58:40.744Z,7.70
2018-10-02T10:01:13.823Z,5.67
2018-10-02T10:03:41.350Z,6.17
2018-10-02T10:06:08.865Z,6.30
2018-10-02T10:08:36.419Z,6.90
2018-10-02T10:11:04.065Z,7.40
2018-10-02T10:13:31.632Z,7.47
2018-10-02T10:15:59.162Z,6.10
2018-10-02T10:18:26.783Z,6.40
2018-10-02T10:20:54.393Z,7.53
2018-10-02T10:23:21.960Z,6.07
2018-10-02T10:25:49.518Z,6.80
2018-10-02T10:28:17.082Z,7.53
2018-10-02T10:30:44.598Z,6.50
2018-10-02T10:33:12.356Z,5.90
2018-10-02T10:35:39.968Z,6.00
2018-10-02T10:38:07.560Z,5.80
2018-10-02T10:40:35.188Z,5.97
2018-10-02T10:43:02.688Z,7.10
2018-10-02T10:45:30.266Z,6.50
2018-10-02T10:47:57.791Z,6.00
2018-10-02T10:50:25.366Z,6.20
2018-10-02T10:52:53.016Z,5.80
2018-10-02T10:55:25.042Z,5.20
2018-10-02T10:57:52.580Z,4.87
2018-10-02T11:00:20.855Z,4.87
2018-10-02T11:02:48.509Z,4.63
2018-10-02T11:05:16.306Z,4.40
2018-10-02T11:07:43.853Z,4.13
2018-10-02T11:10:11.438Z,4.30
2018-10-02T11:12:39.029Z,4.17
2018-10-02T11:15:06.839Z,4.93
2018-10-02T11:17:34.421Z,4.40
2018-10-02T11:20:02.618Z,4.40
2018-10-02T11:22:30.164Z,4.10
2018-10-02T11:24:57.722Z,3.80
2018-10-02T11:27:25.257Z,3.60
2018-10-02T11:29:52.920Z,3.37
2018-10-02T11:32:20.574Z,4.27
2018-10-02T11:34:48.181Z,3.60
2018-10-02T11:37:15.841Z,3.80
2018-10-02T11:39:43.378Z,3.70
2018-10-02T11:42:10.969Z,3.77
2018-10-02T11:44:38.578Z,3.30
2018-10-02T11:47:06.145Z,3.20
2018-10-02T11:49:33.850Z,3.20
2018-10-02T11:52:01.367Z,3.70
2018-10-02T11:54:28.947Z,3.90
2018-10-02T11:56:56.489Z,3.40
2018-10-02T11:59:24.017Z,3.10
2018-10-02T12:01:51.593Z,4.17
2018-10-02T12:04:19.211Z,3.40
2018-10-02T12:06:46.836Z,4.13
2018-10-02T12:09:14.427Z,3.53
2018-10-02T12:11:42.142Z,4.23
2018-10-02T12:14:09.697Z,4.80
2018-10-02T12:16:37.213Z,3.03
2018-10-02T12:19:04.785Z,2.80
2018-10-02T12:21:32.349Z,3.50
2018-10-02T12:23:59.913Z,3.23
2018-10-02T12:26:27.565Z,2.83
2018-10-02T12:28:55.121Z,2.80
2018-10-02T12:31:22.864Z,3.10
2018-10-02T12:33:50.267Z,3.20
2018-10-02T12:36:17.789Z,2.40
2018-10-02T12:38:45.463Z,2.90
2018-10-02T12:41:12.950Z,2.90
2018-10-02T12:43:40.571Z,2.00
2018-10-02T12:46:08.223Z,3.20
2018-10-02T12:48:35.778Z,2.43
2018-10-02T12:51:03.439Z,2.33
2018-10-02T12:53:31.000Z,2.67
2018-10-02T12:55:58.654Z,2.20
2018-10-02T12:58:26.300Z,2.57
2018-10-02T13:00:53.852Z,2.30
2018-10-02T13:03:21.476Z,2.00
2018-10-02T13:05:49.024Z,2.23
2018-10-02T13:08:16.584Z,2.30
2018-10-02T13:10:44.209Z,2.97
2018-10-02T13:13:11.824Z,2.73
2018-10-02T13:15:39.386Z,2.30
2018-10-02T13:18:07.192Z,2.77
2018-10-02T13:20:34.774Z,2.63
2018-10-02T13:23:02.301Z,1.73
2018-10-02T13:25:29.951Z,2.30
2018-10-02T13:27:57.584Z,1.97
2018-10-02T13:30:25.188Z,2.10
2018-10-02T13:32:52.777Z,2.50
2018-10-02T13:35:20.436Z,2.07
2018-10-02T13:37:48.076Z,2.27
2018-10-02T13:40:15.661Z,1.97
2018-10-02T13:42:43.236Z,1.77
2018-10-02T13:45:10.786Z,2.13
2018-10-02T13:47:38.339Z,2.23
2018-10-02T13:50:06.100Z,2.10
2018-10-02T13:52:33.637Z,2.40
2018-10-02T13:55:01.270Z,2.07
2018-10-02T13:57:28.874Z,2.30
2018-10-02T13:59:56.532Z,2.13
2018-10-02T14:02:24.094Z,2.63
2018-10-02T14:04:51.631Z,2.40
2018-10-02T14:07:19.158Z,1.90
2018-10-02T14:09:47.011Z,1.80
2018-10-02T14:12:14.646Z,2.47
2018-10-02T14:14:42.237Z,2.60
2018-10-02T14:17:09.876Z,2.03
2018-10-02T14:19:37.400Z,2.23
2018-10-02T14:22:05.011Z,2.23
2018-10-02T14:24:32.711Z,1.97
2018-10-02T14:27:00.409Z,2.37
2018-10-02T14:29:28.128Z,2.00
2018-10-02T14:31:55.792Z,2.70
2018-10-02T14:34:23.420Z,2.30
2018-10-02T14:36:51.019Z,2.30
2018-10-02T14:39:18.614Z,3.07
2018-10-02T14:41:46.179Z,2.50
2018-10-02T14:44:13.729Z,2.80
2018-10-02T14:46:41.343Z,2.80
2018-10-02T14:49:08.875Z,2.90
2018-10-02T14:51:36.448Z,2.60
2018-10-02T14:54:04.057Z,2.53
2018-10-02T14:56:31.635Z,3.23
2018-10-02T14:58:59.267Z,3.80
2018-10-02T15:01:26.900Z,3.10
2018-10-02T15:03:54.478Z,2.77
2018-10-02T15:06:21.999Z,2.63
2018-10-02T15:08:49.573Z,3.67
2018-10-02T15:11:17.170Z,2.40
2018-10-02T15:13:44.797Z,3.67
2018-10-02T15:16:12.326Z,2.80
2018-10-02T15:18:39.904Z,3.07
2018-10-02T15:21:07.481Z,4.33
2018-10-02T15:23:35.120Z,3.80
2018-10-02T15:26:02.661Z,3.27
2018-10-02T15:28:30.334Z,3.20
2018-10-02T15:30:57.946Z,3.23
2018-10-02T15:33:25.544Z,4.30
2018-10-02T15:35:53.151Z,2.67
2018-10-02T15:38:20.729Z,2.97
2018-10-02T15:40:48.294Z,3.30
2018-10-02T15:43:15.918Z,2.70
2018-10-02T15:45:43.554Z,3.20
2018-10-02T15:48:11.111Z,3.10
2018-10-02T15:50:38.748Z,2.70
2018-10-02T15:53:06.280Z,2.80
2018-10-02T15:55:33.857Z,2.30
2018-10-02T15:58:01.434Z,2.50
2018-10-02T16:00:29.033Z,2.30
2018-10-02T16:02:56.704Z,2.43
2018-10-02T16:05:24.326Z,2.23
2018-10-02T16:07:51.909Z,3.13
2018-10-02T16:10:19.470Z,2.87
2018-10-02T16:12:47.017Z,3.30
2018-10-02T16:15:14.654Z,2.90
2018-10-02T16:17:42.212Z,2.47
2018-10-02T16:20:09.931Z,2.67
2018-10-02T16:22:37.482Z,3.60
2018-10-02T16:25:05.234Z,2.57
2018-10-02T16:27:32.825Z,2.40
2018-10-02T16:30:00.411Z,2.50
2018-10-02T16:32:28.097Z,2.60
2018-10-02T16:34:55.787Z,2.67
2018-10-02T16:37:23.311Z,2.80
2018-10-02T16:39:50.898Z,2.60
2018-10-02T16:42:18.577Z,2.70
2018-10-02T16:44:46.127Z,2.83
2018-10-02T16:47:13.826Z,3.50
2018-10-02T16:49:41.311Z,2.77
2018-10-02T16:52:08.891Z,2.67
2018-10-02T16:54:36.533Z,2.70
2018-10-02T16:57:04.137Z,3.07
2018-10-02T16:59:31.733Z,3.80
2018-10-02T17:01:59.370Z,2.90
2018-10-02T17:04:27.016Z,3.50
2018-10-02T17:06:54.620Z,3.10
2018-10-02T17:09:22.247Z,3.50
2018-10-02T17:11:49.857Z,2.97
2018-10-02T17:14:17.425Z,3.17
2018-10-02T17:16:45.075Z,3.70
2018-10-02T17:19:12.779Z,5.00
2018-10-02T17:21:40.430Z,4.20
2018-10-02T17:24:08.098Z,3.80
2018-10-02T17:26:35.667Z,3.43
2018-10-02T17:29:03.394Z,4.03
2018-10-02T17:31:31.054Z,4.50
2018-10-02T17:33:58.760Z,4.30
2018-10-02T17:36:26.486Z,3.90
2018-10-02T17:38:54.159Z,3.83
2018-10-02T17:41:21.795Z,4.77
2018-10-02T17:43:49.416Z,3.50
2018-10-02T17:46:17.055Z,3.80
2018-10-02T17:48:44.726Z,3.80
2018-10-02T17:51:12.384Z,4.70
2018-10-02T17:53:40.109Z,6.00
2018-10-02T17:56:08.007Z,5.47
2018-10-02T17:58:35.715Z,4.87
2018-10-02T18:01:03.410Z,4.77
2018-10-02T18:03:31.477Z,3.70
2018-10-02T18:05:59.229Z,3.60
2018-10-02T18:08:27.691Z,3.83
2018-10-02T18:10:55.581Z,3.83
2018-10-02T18:13:24.035Z,5.23
2018-10-02T18:15:54.004Z,3.30
2018-10-02T18:18:21.708Z,3.10
2018-10-02T18:20:49.370Z,2.47
2018-10-02T18:23:17.192Z,2.20
2018-10-02T18:25:44.861Z,2.37
2018-10-02T18:28:12.554Z,2.67
2018-10-02T18:30:40.226Z,2.53
2018-10-02T18:33:08.227Z,2.50
2018-10-02T18:35:35.909Z,2.93
2018-10-02T18:38:03.564Z,3.30
2018-10-02T18:40:31.533Z,3.23
2018-10-02T18:42:59.174Z,2.40
2018-10-02T18:45:27.137Z,3.17
2018-10-02T18:47:54.918Z,2.60
2018-10-02T18:50:22.623Z,2.83
2018-10-02T18:52:50.322Z,3.40
2018-10-02T18:55:18.037Z,3.10
2018-10-02T18:57:46.479Z,2.80
2018-10-02T19:00:14.281Z,4.63
2018-10-02T19:02:42.147Z,3.33
2018-10-02T19:05:09.919Z,3.13
2018-10-02T19:07:37.663Z,3.87
2018-10-02T19:10:06.002Z,3.63
2018-10-02T19:12:33.806Z,3.50
2018-10-02T19:15:01.575Z,3.40
2018-10-02T19:17:29.380Z,3.27
2018-10-02T19:20:02.730Z,3.23
2018-10-02T19:22:30.777Z,2.77
2018-10-02T19:25:04.008Z,2.87
2018-10-02T19:27:31.786Z,3.63
2018-10-02T19:30:05.190Z,3.20
2018-10-02T19:32:32.927Z,3.23
2018-10-02T19:35:00.782Z,4.00
2018-10-02T19:37:34.021Z,3.37
2018-10-02T19:40:02.021Z,3.13
2018-10-02T19:42:30.503Z,3.60
2018-10-02T19:45:03.658Z,2.80
2018-10-02T19:47:32.241Z,3.53
2018-10-02T19:50:00.064Z,3.23
2018-10-02T19:52:27.900Z,2.90
2018-10-02T19:54:55.621Z,3.17
2018-10-02T19:57:23.441Z,3.50
2018-10-02T19:59:51.223Z,2.87
2018-10-02T20:02:19.024Z,3.47
2018-10-02T20:04:46.751Z,3.80
2018-10-02T20:07:14.693Z,5.30
2018-10-02T20:09:42.463Z,6.17
2018-10-02T20:12:10.396Z,3.07
2018-10-02T20:14:38.342Z,3.53
2018-10-02T20:17:07.307Z,3.60
2018-10-02T20:19:35.168Z,3.43
2018-10-02T20:22:04.603Z,3.80
2018-10-02T20:24:32.338Z,3.60
2018-10-02T20:27:00.058Z,3.40
2018-10-02T20:29:28.140Z,2.83
2018-10-02T20:31:55.839Z,3.80
2018-10-02T20:34:23.522Z,3.90
2018-10-02T20:36:51.187Z,3.33
2018-10-02T20:39:18.843Z,3.30
2018-10-02T20:41:46.734Z,3.87
2018-10-02T20:44:14.397Z,3.70
2018-10-02T20:46:42.077Z,3.20
2018-10-02T20:49:09.836Z,3.23
2018-10-02T20:51:37.469Z,3.13
2018-10-02T20:54:05.721Z,3.10
2018-10-02T20:56:33.403Z,3.57
2018-10-02T20:59:01.038Z,2.90
2018-10-02T21:01:28.774Z,3.70
2018-10-02T21:03:56.484Z,3.30
2018-10-02T21:06:24.409Z,3.77
2018-10-02T21:08:52.853Z,2.97
2018-10-02T21:11:21.161Z,2.37
2018-10-02T21:13:48.871Z,3.00
2018-10-02T21:16:16.496Z,2.63
2018-10-02T21:18:44.164Z,3.00
2018-10-02T21:21:11.785Z,2.47
2018-10-02T21:23:39.461Z,3.00
2018-10-02T21:26:07.127Z,3.13
2018-10-02T21:28:34.737Z,3.27
2018-10-02T21:31:02.405Z,3.03
2018-10-02T21:33:30.043Z,3.30
2018-10-02T21:35:57.939Z,3.40
2018-10-02T21:38:25.526Z,3.80
2018-10-02T21:40:53.105Z,3.57
2018-10-02T21:43:20.677Z,3.80
2018-10-02T21:45:48.301Z,3.47
2018-10-02T21:48:15.853Z,3.77
2018-10-02T21:50:43.423Z,3.57
2018-10-02T21:53:10.986Z,3.70
2018-10-02T21:55:38.562Z,3.57
2018-10-02T21:58:06.166Z,3.63
2018-10-02T22:00:34.102Z,3.40
2018-10-02T22:03:01.913Z,3.37
2018-10-02T22:05:29.511Z,4.20
2018-10-02T22:07:57.148Z,3.60
2018-10-02T22:10:24.701Z,3.67
2018-10-02T22:12:52.319Z,3.60
2018-10-02T22:15:19.895Z,4.30
2018-10-02T22:17:47.441Z,4.20
2018-10-02T22:20:15.021Z,3.83
2018-10-02T22:22:42.579Z,3.90
2018-10-02T22:25:10.131Z,3.93
2018-10-02T22:27:37.681Z,4.13
2018-10-02T22:30:07.518Z,3.40
2018-10-02T22:32:35.087Z,3.20
2018-10-02T22:35:02.667Z,3.87
2018-10-02T22:37:30.209Z,3.60
2018-10-02T22:39:57.844Z,4.10
2018-10-02T22:42:25.510Z,3.37
2018-10-02T22:44:53.058Z,4.15
2018-10-02T22:47:20.596Z,4.20
2018-10-02T22:49:48.102Z,3.20
2018-10-02T22:52:15.636Z,3.90
2018-10-02T22:54:43.175Z,4.00
2018-10-02T22:57:10.758Z,4.00
2018-10-02T22:59:38.363Z,3.77
2018-10-02T23:02:05.984Z,4.10
2018-10-02T23:04:33.540Z,4.30
2018-10-02T23:07:01.104Z,4.53
2018-10-02T23:09:28.661Z,3.97
2018-10-02T23:11:56.242Z,3.80
2018-10-02T23:14:23.842Z,3.73
2018-10-02T23:16:51.366Z,3.53
2018-10-02T23:19:18.905Z,3.77
2018-10-02T23:21:46.444Z,3.57
2018-10-02T23:24:14.004Z,3.50
2018-10-02T23:26:41.539Z,3.13
2018-10-02T23:29:09.158Z,2.67
2018-10-02T23:31:36.690Z,3.20
2018-10-02T23:34:04.235Z,3.30
2018-10-02T23:36:31.791Z,3.13
2018-10-02T23:38:59.338Z,3.53
2018-10-02T23:41:26.963Z,3.37
2018-10-02T23:43:54.479Z,3.10
2018-10-02T23:46:22.003Z,3.50
2018-10-02T23:48:49.537Z,3.37
2018-10-02T23:51:17.091Z,3.70
2018-10-02T23:53:44.661Z,3.90
2018-10-02T23:56:12.191Z,3.40
2018-10-02T23:58:39.754Z,2.93
